sensor_id;sensor_type;location;lat;lon;timestamp;pressure;altitude;pressure_sealevel;temperature;humidity
42633;BME280;28261;53.304;-6.284;2023-07-29T00:00:39;99568.19;;;14.92;89.21
42633;BME280;28261;53.304;-6.284;2023-07-29T00:02:43;99554.16;;;14.89;89.24
42633;BME280;28261;53.304;-6.284;2023-07-29T00:04:48;99555.47;;;14.85;89.50
42633;BME280;28261;53.304;-6.284;2023-07-29T00:06:53;99559.16;;;14.84;89.86
42633;BME280;28261;53.304;-6.284;2023-07-29T00:08:57;99555.09;;;14.80;89.92
42633;BME280;28261;53.304;-6.284;2023-07-29T00:11:03;99548.41;;;14.76;90.05
42633;BME280;28261;53.304;-6.284;2023-07-29T00:13:08;99549.44;;;14.75;91.00
42633;BME280;28261;53.304;-6.284;2023-07-29T00:15:12;99554.94;;;14.74;91.07
42633;BME280;28261;53.304;-6.284;2023-07-29T00:17:17;99547.91;;;14.72;90.95
42633;BME280;28261;53.304;-6.284;2023-07-29T00:19:22;99549.88;;;14.70;90.80
42633;BME280;28261;53.304;-6.284;2023-07-29T00:21:27;99545.69;;;14.68;91.31
42633;BME280;28261;53.304;-6.284;2023-07-29T00:23:31;99546.88;;;14.65;91.14
42633;BME280;28261;53.304;-6.284;2023-07-29T00:25:35;99552.47;;;14.62;91.72
42633;BME280;28261;53.304;-6.284;2023-07-29T00:27:41;99546.63;;;14.59;91.69
42633;BME280;28261;53.304;-6.284;2023-07-29T00:29:45;99544.13;;;14.57;91.69
42633;BME280;28261;53.304;-6.284;2023-07-29T00:31:49;99543.28;;;14.56;91.66
42633;BME280;28261;53.304;-6.284;2023-07-29T00:33:55;99546.81;;;14.57;91.56
42633;BME280;28261;53.304;-6.284;2023-07-29T00:36:00;99542.28;;;14.58;91.92
42633;BME280;28261;53.304;-6.284;2023-07-29T00:38:05;99540.63;;;14.56;91.98
42633;BME280;28261;53.304;-6.284;2023-07-29T00:40:15;99552.28;;;14.55;91.95
42633;BME280;28261;53.304;-6.284;2023-07-29T00:42:19;99554.13;;;14.55;92.13
42633;BME280;28261;53.304;-6.284;2023-07-29T00:44:24;99553.28;;;14.54;91.83
42633;BME280;28261;53.304;-6.284;2023-07-29T00:46:28;99545.44;;;14.53;91.85
42633;BME280;28261;53.304;-6.284;2023-07-29T00:48:33;99545.28;;;14.54;92.15
42633;BME280;28261;53.304;-6.284;2023-07-29T00:50:37;99547.78;;;14.56;91.90
42633;BME280;28261;53.304;-6.284;2023-07-29T00:52:41;99551.13;;;14.58;92.06
42633;BME280;28261;53.304;-6.284;2023-07-29T00:54:46;99542.28;;;14.58;91.39
42633;BME280;28261;53.304;-6.284;2023-07-29T00:56:50;99548.16;;;14.61;91.30
42633;BME280;28261;53.304;-6.284;2023-07-29T00:58:55;99540.84;;;14.63;91.73
42633;BME280;28261;53.304;-6.284;2023-07-29T01:01:04;99536.22;;;14.65;91.39
42633;BME280;28261;53.304;-6.284;2023-07-29T01:03:08;99539.53;;;14.67;91.21
42633;BME280;28261;53.304;-6.284;2023-07-29T01:05:14;99542.91;;;14.69;91.20
42633;BME280;28261;53.304;-6.284;2023-07-29T01:07:23;99549.06;;;14.70;91.28
42633;BME280;28261;53.304;-6.284;2023-07-29T01:09:40;99545.41;;;14.71;91.26
42633;BME280;28261;53.304;-6.284;2023-07-29T01:11:51;99540.56;;;14.75;91.07
42633;BME280;28261;53.304;-6.284;2023-07-29T01:14:02;99546.59;;;14.77;90.66
42633;BME280;28261;53.304;-6.284;2023-07-29T01:16:15;99541.09;;;14.78;90.93
42633;BME280;28261;53.304;-6.284;2023-07-29T01:18:22;99545.59;;;14.78;90.86
42633;BME280;28261;53.304;-6.284;2023-07-29T01:20:29;99539.41;;;14.77;90.90
42633;BME280;28261;53.304;-6.284;2023-07-29T01:22:37;99548.94;;;14.80;90.72
42633;BME280;28261;53.304;-6.284;2023-07-29T01:24:44;99539.94;;;14.81;90.70
42633;BME280;28261;53.304;-6.284;2023-07-29T01:26:48;99544.44;;;14.80;90.66
42633;BME280;28261;53.304;-6.284;2023-07-29T01:28:52;99537.59;;;14.78;90.48
42633;BME280;28261;53.304;-6.284;2023-07-29T01:30:58;99535.22;;;14.75;90.66
42633;BME280;28261;53.304;-6.284;2023-07-29T01:33:09;99538.56;;;14.68;90.63
42633;BME280;28261;53.304;-6.284;2023-07-29T01:35:21;99549.69;;;14.64;90.83
42633;BME280;28261;53.304;-6.284;2023-07-29T01:37:30;99538.63;;;14.59;91.06
42633;BME280;28261;53.304;-6.284;2023-07-29T01:39:37;99535.59;;;14.53;91.25
42633;BME280;28261;53.304;-6.284;2023-07-29T01:41:43;99538.59;;;14.50;91.45
42633;BME280;28261;53.304;-6.284;2023-07-29T01:43:49;99532.72;;;14.47;91.53
42633;BME280;28261;53.304;-6.284;2023-07-29T01:45:54;99528.53;;;14.44;91.91
42633;BME280;28261;53.304;-6.284;2023-07-29T01:47:58;99532.34;;;14.42;91.95
42633;BME280;28261;53.304;-6.284;2023-07-29T01:50:03;99524.69;;;14.38;92.20
42633;BME280;28261;53.304;-6.284;2023-07-29T01:52:07;99526.53;;;14.38;92.47
42633;BME280;28261;53.304;-6.284;2023-07-29T01:54:11;99522.34;;;14.35;92.19
42633;BME280;28261;53.304;-6.284;2023-07-29T01:56:15;99525.47;;;14.31;92.66
42633;BME280;28261;53.304;-6.284;2023-07-29T01:58:29;99520.59;;;14.26;93.03
42633;BME280;28261;53.304;-6.284;2023-07-29T02:00:33;99520.94;;;14.23;92.69
42633;BME280;28261;53.304;-6.284;2023-07-29T02:02:37;99529.91;;;14.22;92.61
42633;BME280;28261;53.304;-6.284;2023-07-29T02:04:42;99522.22;;;14.19;92.96
42633;BME280;28261;53.304;-6.284;2023-07-29T02:06:47;99524.91;;;14.19;92.84
42633;BME280;28261;53.304;-6.284;2023-07-29T02:08:52;99527.03;;;14.15;93.16
42633;BME280;28261;53.304;-6.284;2023-07-29T02:10:56;99531.66;;;14.13;93.39
42633;BME280;28261;53.304;-6.284;2023-07-29T02:13:00;99528.50;;;14.10;93.52
42633;BME280;28261;53.304;-6.284;2023-07-29T02:15:07;99534.13;;;14.07;93.34
42633;BME280;28261;53.304;-6.284;2023-07-29T02:17:12;99538.59;;;14.06;93.55
42633;BME280;28261;53.304;-6.284;2023-07-29T02:19:16;99538.59;;;14.06;93.56
42633;BME280;28261;53.304;-6.284;2023-07-29T02:21:20;99546.59;;;14.06;93.72
42633;BME280;28261;53.304;-6.284;2023-07-29T02:23:24;99546.59;;;14.06;93.98
42633;BME280;28261;53.304;-6.284;2023-07-29T02:25:28;99541.13;;;14.08;93.50
42633;BME280;28261;53.304;-6.284;2023-07-29T02:27:32;99538.59;;;14.06;93.80
42633;BME280;28261;53.304;-6.284;2023-07-29T02:29:36;99537.63;;;14.07;94.19
42633;BME280;28261;53.304;-6.284;2023-07-29T02:31:42;99541.28;;;14.06;94.15
42633;BME280;28261;53.304;-6.284;2023-07-29T02:33:47;99545.25;;;14.02;93.94
42633;BME280;28261;53.304;-6.284;2023-07-29T02:35:52;99541.06;;;13.99;94.19
42633;BME280;28261;53.304;-6.284;2023-07-29T02:37:56;99543.06;;;13.97;94.48
42633;BME280;28261;53.304;-6.284;2023-07-29T02:40:01;99540.53;;;13.96;94.54
42633;BME280;28261;53.304;-6.284;2023-07-29T02:42:06;99539.69;;;13.95;94.43
42633;BME280;28261;53.304;-6.284;2023-07-29T02:44:11;99536.88;;;13.97;94.25
42633;BME280;28261;53.304;-6.284;2023-07-29T02:46:15;99528.88;;;13.97;93.96
42633;BME280;28261;53.304;-6.284;2023-07-29T02:48:21;99532.72;;;13.94;94.37
42633;BME280;28261;53.304;-6.284;2023-07-29T02:50:25;99530.03;;;13.94;94.20
42633;BME280;28261;53.304;-6.284;2023-07-29T02:52:29;99533.84;;;13.92;94.15
42633;BME280;28261;53.304;-6.284;2023-07-29T02:54:33;99530.50;;;13.90;94.50
42633;BME280;28261;53.304;-6.284;2023-07-29T02:56:36;99528.81;;;13.88;94.46
42633;BME280;28261;53.304;-6.284;2023-07-29T02:58:41;99527.31;;;13.86;94.10
42633;BME280;28261;53.304;-6.284;2023-07-29T03:00:45;99526.78;;;13.82;94.41
42633;BME280;28261;53.304;-6.284;2023-07-29T03:02:52;99524.25;;;13.81;94.56
42633;BME280;28261;53.304;-6.284;2023-07-29T03:04:58;99527.09;;;13.79;94.71
42633;BME280;28261;53.304;-6.284;2023-07-29T03:07:03;99524.19;;;13.73;95.06
42633;BME280;28261;53.304;-6.284;2023-07-29T03:09:07;99525.34;;;13.70;95.26
42633;BME280;28261;53.304;-6.284;2023-07-29T03:11:13;99517.34;;;13.70;95.33
42633;BME280;28261;53.304;-6.284;2023-07-29T03:13:17;99514.69;;;13.70;95.05
42633;BME280;28261;53.304;-6.284;2023-07-29T03:15:23;99513.53;;;13.73;95.05
42633;BME280;28261;53.304;-6.284;2023-07-29T03:17:28;99523.06;;;13.75;95.00
42633;BME280;28261;53.304;-6.284;2023-07-29T03:19:32;99514.06;;;13.76;94.52
42633;BME280;28261;53.304;-6.284;2023-07-29T03:21:40;99513.78;;;13.79;94.79
42633;BME280;28261;53.304;-6.284;2023-07-29T03:23:44;99517.09;;;13.81;94.73
42633;BME280;28261;53.304;-6.284;2023-07-29T03:25:48;99511.63;;;13.83;93.75
42633;BME280;28261;53.304;-6.284;2023-07-29T03:27:54;99517.81;;;13.83;93.72
42633;BME280;28261;53.304;-6.284;2023-07-29T03:29:59;99507.16;;;13.83;93.34
42633;BME280;28261;53.304;-6.284;2023-07-29T03:32:04;99506.13;;;13.84;93.51
42633;BME280;28261;53.304;-6.284;2023-07-29T03:34:08;99506.44;;;13.81;93.30
42633;BME280;28261;53.304;-6.284;2023-07-29T03:36:16;99508.44;;;13.79;93.56
42633;BME280;28261;53.304;-6.284;2023-07-29T03:38:23;99505.09;;;13.77;93.01
42633;BME280;28261;53.304;-6.284;2023-07-29T03:40:27;99500.72;;;13.76;92.81
42633;BME280;28261;53.304;-6.284;2023-07-29T03:42:30;99504.53;;;13.74;93.32
42633;BME280;28261;53.304;-6.284;2023-07-29T03:44:34;99507.34;;;13.72;92.78
42633;BME280;28261;53.304;-6.284;2023-07-29T03:46:38;99507.34;;;13.72;92.88
42633;BME280;28261;53.304;-6.284;2023-07-29T03:48:45;99513.53;;;13.73;92.61
42633;BME280;28261;53.304;-6.284;2023-07-29T03:50:49;99509.34;;;13.70;92.36
42633;BME280;28261;53.304;-6.284;2023-07-29T03:52:54;99514.84;;;13.68;92.52
42633;BME280;28261;53.304;-6.284;2023-07-29T03:55:00;99508.97;;;13.65;92.02
42633;BME280;28261;53.304;-6.284;2023-07-29T03:57:04;99511.63;;;13.65;92.42
42633;BME280;28261;53.304;-6.284;2023-07-29T03:59:08;99513.63;;;13.63;92.15
42633;BME280;28261;53.304;-6.284;2023-07-29T04:01:12;99514.59;;;13.62;91.85
42633;BME280;28261;53.304;-6.284;2023-07-29T04:03:15;99501.88;;;13.56;92.04
42633;BME280;28261;53.304;-6.284;2023-07-29T04:05:19;99510.19;;;13.52;91.85
42633;BME280;28261;53.304;-6.284;2023-07-29T04:07:23;99504.16;;;13.50;91.71
42633;BME280;28261;53.304;-6.284;2023-07-29T04:09:27;99510.78;;;13.46;91.57
42633;BME280;28261;53.304;-6.284;2023-07-29T04:11:32;99497.78;;;13.43;91.62
42633;BME280;28261;53.304;-6.284;2023-07-29T04:13:35;99514.06;;;13.40;92.23
42633;BME280;28261;53.304;-6.284;2023-07-29T04:15:39;99502.72;;;13.38;91.67
42633;BME280;28261;53.304;-6.284;2023-07-29T04:17:43;99508.03;;;13.38;92.08
42633;BME280;28261;53.304;-6.284;2023-07-29T04:19:46;99500.06;;;13.38;91.99
42633;BME280;28261;53.304;-6.284;2023-07-29T04:21:51;99510.31;;;13.33;91.59
42633;BME280;28261;53.304;-6.284;2023-07-29T04:23:55;99504.44;;;13.29;92.28
42633;BME280;28261;53.304;-6.284;2023-07-29T04:25:57;99505.41;;;13.28;91.75
42633;BME280;28261;53.304;-6.284;2023-07-29T04:28:02;99504.59;;;13.28;91.69
42633;BME280;28261;53.304;-6.284;2023-07-29T04:30:08;99509.91;;;13.28;91.42
42633;BME280;28261;53.304;-6.284;2023-07-29T04:32:10;99512.41;;;13.29;91.77
42633;BME280;28261;53.304;-6.284;2023-07-29T04:34:17;99504.28;;;13.31;91.03
42633;BME280;28261;53.304;-6.284;2023-07-29T04:36:21;99495.63;;;13.29;91.41
42633;BME280;28261;53.304;-6.284;2023-07-29T04:38:31;99503.63;;;13.29;91.73
42633;BME280;28261;53.304;-6.284;2023-07-29T04:40:36;99498.28;;;13.29;91.65
42633;BME280;28261;53.304;-6.284;2023-07-29T04:42:39;99500.09;;;13.28;91.65
42633;BME280;28261;53.304;-6.284;2023-07-29T04:44:45;99507.25;;;13.28;91.99
42633;BME280;28261;53.304;-6.284;2023-07-29T04:46:48;99516.91;;;13.29;92.06
42633;BME280;28261;53.304;-6.284;2023-07-29T04:48:52;99508.22;;;13.27;91.62
42633;BME280;28261;53.304;-6.284;2023-07-29T04:50:55;99513.25;;;13.30;91.95
42633;BME280;28261;53.304;-6.284;2023-07-29T04:52:59;99511.28;;;13.32;91.54
42633;BME280;28261;53.304;-6.284;2023-07-29T04:55:03;99512.97;;;13.33;91.75
42633;BME280;28261;53.304;-6.284;2023-07-29T04:57:07;99508.31;;;13.35;91.39
42633;BME280;28261;53.304;-6.284;2023-07-29T04:59:10;99509.06;;;13.37;91.47
42633;BME280;28261;53.304;-6.284;2023-07-29T05:01:16;99511.88;;;13.35;91.59
42633;BME280;28261;53.304;-6.284;2023-07-29T05:03:19;99516.03;;;13.38;91.22
42633;BME280;28261;53.304;-6.284;2023-07-29T05:05:24;99501.72;;;13.39;90.98
42633;BME280;28261;53.304;-6.284;2023-07-29T05:07:27;99513.91;;;13.42;91.12
42633;BME280;28261;53.304;-6.284;2023-07-29T05:09:31;99514.72;;;13.42;90.27
42633;BME280;28261;53.304;-6.284;2023-07-29T05:11:35;99510.13;;;13.44;90.68
42633;BME280;28261;53.304;-6.284;2023-07-29T05:13:38;99502.78;;;13.46;90.78
42633;BME280;28261;53.304;-6.284;2023-07-29T05:15:43;99513.16;;;13.49;90.39
42633;BME280;28261;53.304;-6.284;2023-07-29T05:17:48;99507.69;;;13.51;90.08
42633;BME280;28261;53.304;-6.284;2023-07-29T05:19:52;99513.69;;;13.53;90.02
42633;BME280;28261;53.304;-6.284;2023-07-29T05:21:56;99521.22;;;13.58;89.77
42633;BME280;28261;53.304;-6.284;2023-07-29T05:23:59;99510.25;;;13.61;90.09
42633;BME280;28261;53.304;-6.284;2023-07-29T05:26:03;99509.94;;;13.64;89.42
42633;BME280;28261;53.304;-6.284;2023-07-29T05:28:07;99498.00;;;13.68;89.34
42633;BME280;28261;53.304;-6.284;2023-07-29T05:30:10;99504.03;;;13.70;89.54
42633;BME280;28261;53.304;-6.284;2023-07-29T05:32:15;99506.38;;;13.73;89.30
42633;BME280;28261;53.304;-6.284;2023-07-29T05:34:21;99499.22;;;13.74;89.68
42633;BME280;28261;53.304;-6.284;2023-07-29T05:36:24;99493.75;;;13.75;89.51
42633;BME280;28261;53.304;-6.284;2023-07-29T05:38:28;99494.75;;;13.74;89.24
42633;BME280;28261;53.304;-6.284;2023-07-29T05:40:32;99495.41;;;13.76;89.38
42633;BME280;28261;53.304;-6.284;2023-07-29T05:42:36;99498.06;;;13.76;89.27
42633;BME280;28261;53.304;-6.284;2023-07-29T05:44:40;99493.06;;;13.73;89.24
42633;BME280;28261;53.304;-6.284;2023-07-29T05:46:43;99489.72;;;13.71;88.93
42633;BME280;28261;53.304;-6.284;2023-07-29T05:48:47;99475.78;;;13.77;89.24
42633;BME280;28261;53.304;-6.284;2023-07-29T05:50:52;99477.84;;;13.83;89.07
42633;BME280;28261;53.304;-6.284;2023-07-29T05:52:55;99489.00;;;13.87;88.46
42633;BME280;28261;53.304;-6.284;2023-07-29T05:54:58;99490.03;;;13.86;88.67
42633;BME280;28261;53.304;-6.284;2023-07-29T05:57:03;99474.16;;;13.84;89.06
42633;BME280;28261;53.304;-6.284;2023-07-29T05:59:07;99490.47;;;13.81;89.13
42633;BME280;28261;53.304;-6.284;2023-07-29T06:01:11;99487.91;;;13.98;89.48
42633;BME280;28261;53.304;-6.284;2023-07-29T06:03:15;99482.56;;;14.42;88.17
42633;BME280;28261;53.304;-6.284;2023-07-29T06:05:20;99483.75;;;14.82;85.05
42633;BME280;28261;53.304;-6.284;2023-07-29T06:07:25;99487.47;;;14.98;84.26
42633;BME280;28261;53.304;-6.284;2023-07-29T06:09:32;99480.88;;;15.43;82.39
42633;BME280;28261;53.304;-6.284;2023-07-29T06:11:36;99479.75;;;16.12;80.11
42633;BME280;28261;53.304;-6.284;2023-07-29T06:13:39;99481.66;;;16.99;76.72
42633;BME280;28261;53.304;-6.284;2023-07-29T06:15:43;99481.25;;;17.88;72.03
42633;BME280;28261;53.304;-6.284;2023-07-29T06:17:48;99480.69;;;18.60;68.97
42633;BME280;28261;53.304;-6.284;2023-07-29T06:19:52;99486.38;;;19.17;65.54
42633;BME280;28261;53.304;-6.284;2023-07-29T06:21:55;99489.72;;;19.62;63.05
42633;BME280;28261;53.304;-6.284;2023-07-29T06:24:01;99495.69;;;20.01;62.02
42633;BME280;28261;53.304;-6.284;2023-07-29T06:26:05;99500.53;;;20.41;60.38
42633;BME280;28261;53.304;-6.284;2023-07-29T06:28:09;99491.41;;;20.77;59.18
42633;BME280;28261;53.304;-6.284;2023-07-29T06:30:13;99492.81;;;21.08;57.34
42633;BME280;28261;53.304;-6.284;2023-07-29T06:32:17;99490.78;;;21.30;57.25
42633;BME280;28261;53.304;-6.284;2023-07-29T06:34:21;99488.81;;;21.59;55.64
42633;BME280;28261;53.304;-6.284;2023-07-29T06:36:28;99490.88;;;21.77;54.88
42633;BME280;28261;53.304;-6.284;2023-07-29T06:38:36;99494.22;;;21.86;53.87
42633;BME280;28261;53.304;-6.284;2023-07-29T06:40:44;99489.44;;;21.94;53.80
42633;BME280;28261;53.304;-6.284;2023-07-29T06:42:47;99504.78;;;22.14;52.62
42633;BME280;28261;53.304;-6.284;2023-07-29T06:44:51;99499.59;;;22.33;52.69
42633;BME280;28261;53.304;-6.284;2023-07-29T06:46:55;99493.78;;;22.49;51.79
42633;BME280;28261;53.304;-6.284;2023-07-29T06:49:01;99501.84;;;22.56;50.97
42633;BME280;28261;53.304;-6.284;2023-07-29T06:51:04;99496.81;;;22.66;50.44
42633;BME280;28261;53.304;-6.284;2023-07-29T06:53:09;99509.06;;;22.82;50.16
42633;BME280;28261;53.304;-6.284;2023-07-29T06:55:12;99507.78;;;22.91;49.69
42633;BME280;28261;53.304;-6.284;2023-07-29T06:57:18;99505.66;;;23.00;48.93
42633;BME280;28261;53.304;-6.284;2023-07-29T06:59:22;99510.34;;;23.25;48.99
42633;BME280;28261;53.304;-6.284;2023-07-29T07:01:26;99509.28;;;23.32;48.50
42633;BME280;28261;53.304;-6.284;2023-07-29T07:03:30;99515.88;;;23.43;48.24
42633;BME280;28261;53.304;-6.284;2023-07-29T07:05:34;99506.97;;;23.36;47.73
42633;BME280;28261;53.304;-6.284;2023-07-29T07:07:38;99501.19;;;23.26;47.63
42633;BME280;28261;53.304;-6.284;2023-07-29T07:09:41;99515.81;;;23.11;48.01
42633;BME280;28261;53.304;-6.284;2023-07-29T07:11:45;99509.19;;;23.01;48.01
42633;BME280;28261;53.304;-6.284;2023-07-29T07:13:51;99519.56;;;23.10;48.02
42633;BME280;28261;53.304;-6.284;2023-07-29T07:15:56;99515.53;;;23.26;47.79
42633;BME280;28261;53.304;-6.284;2023-07-29T07:18:01;99512.44;;;23.23;47.12
42633;BME280;28261;53.304;-6.284;2023-07-29T07:20:07;99512.69;;;23.08;47.46
42633;BME280;28261;53.304;-6.284;2023-07-29T07:22:09;99519.16;;;23.00;47.87
42633;BME280;28261;53.304;-6.284;2023-07-29T07:24:13;99526.84;;;23.03;47.94
42633;BME280;28261;53.304;-6.284;2023-07-29T07:26:17;99514.56;;;23.14;47.65
42633;BME280;28261;53.304;-6.284;2023-07-29T07:28:21;99523.50;;;23.14;47.28
42633;BME280;28261;53.304;-6.284;2023-07-29T07:30:26;99516.22;;;23.15;47.42
42633;BME280;28261;53.304;-6.284;2023-07-29T07:32:30;99521.56;;;23.28;47.31
42633;BME280;28261;53.304;-6.284;2023-07-29T07:34:34;99522.28;;;23.49;47.17
42633;BME280;28261;53.304;-6.284;2023-07-29T07:36:38;99519.88;;;23.66;46.63
42633;BME280;28261;53.304;-6.284;2023-07-29T07:38:45;99518.72;;;23.55;46.27
42633;BME280;28261;53.304;-6.284;2023-07-29T07:40:55;99513.38;;;23.42;46.76
42633;BME280;28261;53.304;-6.284;2023-07-29T07:42:59;99535.03;;;23.42;46.88
42633;BME280;28261;53.304;-6.284;2023-07-29T07:45:04;99526.22;;;23.53;46.77
42633;BME280;28261;53.304;-6.284;2023-07-29T07:47:08;99526.63;;;23.57;46.76
42633;BME280;28261;53.304;-6.284;2023-07-29T07:49:14;99531.69;;;23.78;46.85
42633;BME280;28261;53.304;-6.284;2023-07-29T07:51:17;99535.56;;;23.89;46.47
42633;BME280;28261;53.304;-6.284;2023-07-29T07:53:21;99530.56;;;23.86;46.32
42633;BME280;28261;53.304;-6.284;2023-07-29T07:55:27;99522.28;;;23.81;46.36
42633;BME280;28261;53.304;-6.284;2023-07-29T07:57:31;99532.59;;;23.65;46.34
42633;BME280;28261;53.304;-6.284;2023-07-29T07:59:34;99543.09;;;23.48;46.58
42633;BME280;28261;53.304;-6.284;2023-07-29T08:01:38;99546.81;;;23.54;46.71
42633;BME280;28261;53.304;-6.284;2023-07-29T08:03:44;99552.81;;;23.56;46.69
42633;BME280;28261;53.304;-6.284;2023-07-29T08:05:48;99545.03;;;23.35;46.75
42633;BME280;28261;53.304;-6.284;2023-07-29T08:07:52;99549.53;;;22.95;47.43
42633;BME280;28261;53.304;-6.284;2023-07-29T08:09:57;99553.72;;;22.85;47.81
42633;BME280;28261;53.304;-6.284;2023-07-29T08:12:00;99550.00;;;22.79;48.17
42633;BME280;28261;53.304;-6.284;2023-07-29T08:14:04;99558.91;;;22.86;48.28
42633;BME280;28261;53.304;-6.284;2023-07-29T08:16:08;99568.09;;;22.72;48.28
42633;BME280;28261;53.304;-6.284;2023-07-29T08:18:12;99549.44;;;22.50;48.96
42633;BME280;28261;53.304;-6.284;2023-07-29T08:20:17;99560.66;;;22.40;49.10
42633;BME280;28261;53.304;-6.284;2023-07-29T08:22:20;99555.84;;;22.15;49.44
42633;BME280;28261;53.304;-6.284;2023-07-29T08:24:25;99560.41;;;21.95;50.10
42633;BME280;28261;53.304;-6.284;2023-07-29T08:26:29;99550.69;;;21.87;50.50
42633;BME280;28261;53.304;-6.284;2023-07-29T08:28:35;99555.22;;;21.80;51.12
42633;BME280;28261;53.304;-6.284;2023-07-29T08:30:40;99553.13;;;21.69;51.51
42633;BME280;28261;53.304;-6.284;2023-07-29T08:32:44;99550.16;;;21.50;52.21
42633;BME280;28261;53.304;-6.284;2023-07-29T08:34:48;99552.13;;;21.15;53.34
42633;BME280;28261;53.304;-6.284;2023-07-29T08:36:54;99554.00;;;20.79;54.88
42633;BME280;28261;53.304;-6.284;2023-07-29T08:38:59;99564.13;;;20.49;55.79
42633;BME280;28261;53.304;-6.284;2023-07-29T08:41:13;99563.22;;;20.13;56.76
42633;BME280;28261;53.304;-6.284;2023-07-29T08:43:28;99565.59;;;19.79;58.03
42633;BME280;28261;53.304;-6.284;2023-07-29T08:45:36;99563.28;;;19.55;59.11
42633;BME280;28261;53.304;-6.284;2023-07-29T08:47:54;99579.91;;;19.28;59.68
42633;BME280;28261;53.304;-6.284;2023-07-29T08:50:05;99582.91;;;19.04;60.47
42633;BME280;28261;53.304;-6.284;2023-07-29T08:52:16;99582.41;;;18.85;60.89
42633;BME280;28261;53.304;-6.284;2023-07-29T08:54:25;99585.72;;;18.72;61.49
42633;BME280;28261;53.304;-6.284;2023-07-29T08:56:31;99575.94;;;18.65;61.83
42633;BME280;28261;53.304;-6.284;2023-07-29T08:58:37;99581.84;;;18.60;62.02
42633;BME280;28261;53.304;-6.284;2023-07-29T09:00:44;99577.31;;;18.60;62.33
42633;BME280;28261;53.304;-6.284;2023-07-29T09:02:51;99587.38;;;18.58;62.44
42633;BME280;28261;53.304;-6.284;2023-07-29T09:04:57;99580.53;;;18.56;62.67
42633;BME280;28261;53.304;-6.284;2023-07-29T09:07:06;99587.56;;;18.57;62.65
42633;BME280;28261;53.304;-6.284;2023-07-29T09:09:17;99601.00;;;18.57;62.98
42633;BME280;28261;53.304;-6.284;2023-07-29T09:11:24;99590.56;;;18.62;62.99
42633;BME280;28261;53.304;-6.284;2023-07-29T09:13:31;99593.16;;;18.70;63.00
42633;BME280;28261;53.304;-6.284;2023-07-29T09:15:37;99592.78;;;18.73;62.81
42633;BME280;28261;53.304;-6.284;2023-07-29T09:17:42;99591.19;;;18.79;62.99
42633;BME280;28261;53.304;-6.284;2023-07-29T09:19:48;99598.34;;;18.87;62.64
42633;BME280;28261;53.304;-6.284;2023-07-29T09:21:52;99601.16;;;18.93;62.98
42633;BME280;28261;53.304;-6.284;2023-07-29T09:23:56;99595.31;;;19.05;62.49
42633;BME280;28261;53.304;-6.284;2023-07-29T09:26:03;99601.88;;;19.17;61.89
42633;BME280;28261;53.304;-6.284;2023-07-29T09:28:11;99599.28;;;19.24;61.43
42633;BME280;28261;53.304;-6.284;2023-07-29T09:30:16;99597.31;;;19.33;61.46
42633;BME280;28261;53.304;-6.284;2023-07-29T09:32:23;99601.03;;;19.32;61.38
42633;BME280;28261;53.304;-6.284;2023-07-29T09:34:27;99603.06;;;19.30;61.85
42633;BME280;28261;53.304;-6.284;2023-07-29T09:36:33;99597.25;;;19.26;61.92
42633;BME280;28261;53.304;-6.284;2023-07-29T09:38:41;99608.16;;;19.24;62.07
42633;BME280;28261;53.304;-6.284;2023-07-29T09:40:54;99601.03;;;19.32;61.99
42633;BME280;28261;53.304;-6.284;2023-07-29T09:43:01;99591.94;;;19.33;61.68
42633;BME280;28261;53.304;-6.284;2023-07-29T09:45:08;99597.78;;;19.36;61.87
42633;BME280;28261;53.304;-6.284;2023-07-29T09:47:22;99597.19;;;19.41;61.67
42633;BME280;28261;53.304;-6.284;2023-07-29T09:49:27;99594.16;;;19.44;61.66
42633;BME280;28261;53.304;-6.284;2023-07-29T09:51:34;99601.56;;;19.42;61.69
42633;BME280;28261;53.304;-6.284;2023-07-29T09:53:55;99600.19;;;19.31;61.94
42633;BME280;28261;53.304;-6.284;2023-07-29T09:56:01;99599.28;;;19.24;62.19
42633;BME280;28261;53.304;-6.284;2023-07-29T09:58:09;99604.19;;;19.20;62.48
42633;BME280;28261;53.304;-6.284;2023-07-29T10:00:13;99615.97;;;19.19;62.71
42633;BME280;28261;53.304;-6.284;2023-07-29T10:02:18;99606.34;;;19.10;62.50
42633;BME280;28261;53.304;-6.284;2023-07-29T10:04:22;99615.78;;;19.06;63.06
42633;BME280;28261;53.304;-6.284;2023-07-29T10:06:27;99606.63;;;19.15;63.30
42633;BME280;28261;53.304;-6.284;2023-07-29T10:08:33;99615.41;;;19.24;62.88
42633;BME280;28261;53.304;-6.284;2023-07-29T10:10:38;99616.50;;;19.30;62.77
42633;BME280;28261;53.304;-6.284;2023-07-29T10:12:43;99611.03;;;19.38;62.44
42633;BME280;28261;53.304;-6.284;2023-07-29T10:14:49;99615.66;;;19.44;62.42
42633;BME280;28261;53.304;-6.284;2023-07-29T10:16:55;99610.81;;;19.54;62.35
42633;BME280;28261;53.304;-6.284;2023-07-29T10:19:01;99620.44;;;19.64;61.94
42633;BME280;28261;53.304;-6.284;2023-07-29T10:21:05;99619.81;;;19.61;61.82
42633;BME280;28261;53.304;-6.284;2023-07-29T10:23:10;99628.13;;;19.52;62.33
42633;BME280;28261;53.304;-6.284;2023-07-29T10:25:17;99626.50;;;19.51;62.68
42633;BME280;28261;53.304;-6.284;2023-07-29T10:27:24;99618.63;;;19.49;62.55
42633;BME280;28261;53.304;-6.284;2023-07-29T10:29:30;99625.00;;;19.48;62.90
42633;BME280;28261;53.304;-6.284;2023-07-29T10:31:39;99625.41;;;19.67;62.60
42633;BME280;28261;53.304;-6.284;2023-07-29T10:33:44;99618.53;;;19.79;62.22
42633;BME280;28261;53.304;-6.284;2023-07-29T10:35:49;99626.97;;;19.76;61.96
42633;BME280;28261;53.304;-6.284;2023-07-29T10:37:55;99632.00;;;19.64;62.64
42633;BME280;28261;53.304;-6.284;2023-07-29T10:39:59;99622.03;;;19.58;62.68
42633;BME280;28261;53.304;-6.284;2023-07-29T10:42:06;99625.72;;;19.57;63.43
42633;BME280;28261;53.304;-6.284;2023-07-29T10:46:53;99621.19;;;19.57;62.88
42633;BME280;28261;53.304;-6.284;2023-07-29T10:49:02;99616.66;;;19.58;63.08
42633;BME280;28261;53.304;-6.284;2023-07-29T10:51:26;99603.91;;;19.67;62.95
42633;BME280;28261;53.304;-6.284;2023-07-29T10:53:30;99617.81;;;19.70;62.58
42633;BME280;28261;53.304;-6.284;2023-07-29T10:55:35;99616.72;;;19.65;62.97
42633;BME280;28261;53.304;-6.284;2023-07-29T10:57:42;99624.06;;;19.56;63.03